createdAt,value
2023-03-14T00:02:02.605Z,77.70
2023-03-14T00:04:29.301Z,77.80
2023-03-14T00:06:55.964Z,77.80
2023-03-14T00:09:23.836Z,77.70
2023-03-14T00:11:50.695Z,77.60
2023-03-14T00:14:18.120Z,77.60
2023-03-14T00:16:47.214Z,77.40
2023-03-14T00:19:13.911Z,77.40
2023-03-14T00:21:40.714Z,77.60
2023-03-14T00:24:08.241Z,77.50
2023-03-14T00:26:35.010Z,77.80
2023-03-14T00:29:01.768Z,78.00
2023-03-14T00:31:28.534Z,78.60
2023-03-14T00:33:55.290Z,78.00
2023-03-14T00:36:22.810Z,78.10
2023-03-14T00:38:52.061Z,78.00
2023-03-14T00:41:20.413Z,78.30
2023-03-14T00:43:47.090Z,78.30
2023-03-14T00:46:13.927Z,78.30
2023-03-14T00:48:41.002Z,78.30
2023-03-14T00:51:08.581Z,78.30
2023-03-14T00:53:39.115Z,78.30
2023-03-14T00:56:07.421Z,79.00
2023-03-14T00:58:34.112Z,78.20
2023-03-14T01:01:03.164Z,78.20
2023-03-14T01:03:29.890Z,78.20
2023-03-14T01:06:06.684Z,78.20
2023-03-14T01:08:33.384Z,78.30
2023-03-14T01:11:00.028Z,78.40
2023-03-14T01:13:26.870Z,78.40
2023-03-14T01:15:53.768Z,78.30
2023-03-14T01:18:21.289Z,78.40
2023-03-14T01:20:47.986Z,78.60
2023-03-14T01:23:14.649Z,78.60
2023-03-14T01:25:42.422Z,78.90
2023-03-14T01:28:09.128Z,78.80
2023-03-14T01:30:35.839Z,78.80
2023-03-14T01:33:02.549Z,78.80
2023-03-14T01:35:29.276Z,79.00
2023-03-14T01:37:57.782Z,78.90
2023-03-14T01:40:24.443Z,79.20
2023-03-14T01:42:59.240Z,79.20
2023-03-14T01:46:13.791Z,79.20
2023-03-14T01:48:46.445Z,79.10
2023-03-14T01:51:19.078Z,79.20
2023-03-14T01:53:45.743Z,79.20
2023-03-14T01:56:13.756Z,80.00
2023-03-14T01:58:40.662Z,79.20
2023-03-14T02:01:07.391Z,79.20
2023-03-14T02:03:37.177Z,79.30
2023-03-14T02:06:06.497Z,79.30
2023-03-14T02:08:33.316Z,79.70
2023-03-14T02:11:00.296Z,79.50
2023-03-14T02:13:27.946Z,79.40
2023-03-14T02:15:54.711Z,79.30
2023-03-14T02:18:21.391Z,79.30
2023-03-14T02:21:05.783Z,79.30
2023-03-14T02:23:56.532Z,79.30
2023-03-14T02:26:44.707Z,79.40
2023-03-14T02:29:11.488Z,79.40
2023-03-14T02:31:38.265Z,79.30
2023-03-14T02:34:04.987Z,79.70
2023-03-14T02:36:31.657Z,79.40
2023-03-14T02:39:16.856Z,79.40
2023-03-14T02:41:46.164Z,79.30
2023-03-14T02:44:13.101Z,79.30
2023-03-14T02:46:39.805Z,80.10
2023-03-14T02:49:08.654Z,79.40
2023-03-14T02:51:35.331Z,79.50
2023-03-14T02:54:02.642Z,80.10
2023-03-14T02:56:29.619Z,79.70
2023-03-14T02:58:58.636Z,79.60
2023-03-14T03:01:25.905Z,79.50
2023-03-14T03:03:52.696Z,79.50
2023-03-14T03:06:19.408Z,79.50
2023-03-14T03:08:46.078Z,79.60
2023-03-14T03:11:12.825Z,79.90
2023-03-14T03:13:39.500Z,80.20
2023-03-14T03:16:06.458Z,80.60
2023-03-14T03:18:33.966Z,81.60
2023-03-14T03:21:04.706Z,81.00
2023-03-14T03:23:32.714Z,81.10
2023-03-14T03:25:59.408Z,81.20
2023-03-14T03:28:26.095Z,81.20
2023-03-14T03:30:52.890Z,80.60
2023-03-14T03:33:19.602Z,80.60
2023-03-14T03:35:50.401Z,80.90
2023-03-14T03:38:17.435Z,81.00
2023-03-14T03:40:44.126Z,81.30
2023-03-14T03:43:10.907Z,81.00
2023-03-14T03:45:37.610Z,81.10
2023-03-14T03:48:05.379Z,80.80
2023-03-14T03:50:32.118Z,80.70
2023-03-14T03:52:58.840Z,80.90
2023-03-14T03:55:29.064Z,81.20
2023-03-14T03:57:55.933Z,81.50
2023-03-14T04:00:22.742Z,81.80
2023-03-14T04:02:49.521Z,82.10
2023-03-14T04:05:16.455Z,82.10
2023-03-14T04:07:43.160Z,82.30
2023-03-14T04:10:10.610Z,82.40
2023-03-14T04:12:37.293Z,82.40
2023-03-14T04:15:04.668Z,82.40
2023-03-14T04:17:31.317Z,82.20
2023-03-14T04:19:57.979Z,82.30
2023-03-14T04:22:24.624Z,82.40
2023-03-14T04:24:51.334Z,81.90
2023-03-14T04:27:18.076Z,81.40
2023-03-14T04:29:44.782Z,81.10
2023-03-14T04:32:11.567Z,81.00
2023-03-14T04:34:38.442Z,80.90
2023-03-14T04:37:06.474Z,80.90
2023-03-14T04:39:33.137Z,81.00
2023-03-14T04:41:59.788Z,81.30
2023-03-14T04:44:26.536Z,81.50
2023-03-14T04:46:53.277Z,81.60
2023-03-14T04:49:19.967Z,81.40
2023-03-14T04:51:46.696Z,81.90
2023-03-14T04:54:13.442Z,81.80
2023-03-14T04:56:40.144Z,81.80
2023-03-14T04:59:09.230Z,81.90
2023-03-14T05:01:36.834Z,82.60
2023-03-14T05:04:03.848Z,81.90
2023-03-14T05:06:30.568Z,81.70
2023-03-14T05:08:57.265Z,81.80
2023-03-14T05:11:23.976Z,81.60
2023-03-14T05:13:50.677Z,81.20
2023-03-14T05:16:17.468Z,81.00
2023-03-14T05:18:44.201Z,80.70
2023-03-14T05:21:10.888Z,80.50
2023-03-14T05:23:38.666Z,80.70
2023-03-14T05:26:05.558Z,80.90
2023-03-14T05:28:32.262Z,81.10
2023-03-14T05:30:59.024Z,81.20
2023-03-14T05:33:25.707Z,81.20
2023-03-14T05:35:52.392Z,81.20
2023-03-14T05:38:19.424Z,81.20
2023-03-14T05:40:46.546Z,81.10
2023-03-14T05:43:13.228Z,81.00
2023-03-14T05:45:41.628Z,80.60
2023-03-14T05:48:09.269Z,80.50
2023-03-14T05:50:36.191Z,80.40
2023-03-14T05:53:02.988Z,80.80
2023-03-14T05:55:29.649Z,80.60
2023-03-14T05:57:56.403Z,80.40
2023-03-14T06:00:23.435Z,80.70
2023-03-14T06:02:50.286Z,80.50
2023-03-14T06:05:17.077Z,80.10
2023-03-14T06:07:43.777Z,79.80
2023-03-14T06:10:11.736Z,79.80
2023-03-14T06:12:38.658Z,79.40
2023-03-14T06:15:06.793Z,79.40
2023-03-14T06:17:33.491Z,79.40
2023-03-14T06:20:00.230Z,79.10
2023-03-14T06:22:26.900Z,79.00
2023-03-14T06:24:53.553Z,78.20
2023-03-14T06:27:20.204Z,77.90
2023-03-14T06:29:46.880Z,78.20
2023-03-14T06:32:13.678Z,78.80
2023-03-14T06:34:41.984Z,78.80
2023-03-14T06:37:09.665Z,79.30
2023-03-14T06:39:36.419Z,77.10
2023-03-14T06:42:03.178Z,77.80
2023-03-14T06:44:29.845Z,77.80
2023-03-14T06:46:56.595Z,77.50
2023-03-14T06:49:23.411Z,77.20
2023-03-14T06:51:50.085Z,76.90
2023-03-14T06:54:16.740Z,76.70
2023-03-14T06:56:43.450Z,76.60
2023-03-14T06:59:11.539Z,76.50
2023-03-14T07:01:38.562Z,76.60
2023-03-14T07:04:06.228Z,76.00
2023-03-14T07:06:33.884Z,75.70
2023-03-14T07:09:02.929Z,76.50
2023-03-14T07:11:29.893Z,76.30
2023-03-14T07:13:56.603Z,77.10
2023-03-14T07:16:23.343Z,76.00
2023-03-14T07:18:50.393Z,75.90
2023-03-14T07:21:17.154Z,75.70
2023-03-14T07:23:43.820Z,75.20
2023-03-14T07:26:11.299Z,76.00
2023-03-14T07:28:38.028Z,76.40
2023-03-14T07:31:05.098Z,76.40
2023-03-14T07:33:31.838Z,78.60
2023-03-14T07:35:58.526Z,77.90
2023-03-14T07:38:25.281Z,77.90
2023-03-14T07:40:52.017Z,77.70
2023-03-14T07:43:18.773Z,77.40
2023-03-14T07:45:58.724Z,77.40
2023-03-14T07:48:27.813Z,76.90
2023-03-14T07:50:55.244Z,76.50
2023-03-14T07:53:22.463Z,76.80
2023-03-14T07:55:49.243Z,77.20
2023-03-14T07:58:16.029Z,76.90
2023-03-14T08:00:42.742Z,76.50
2023-03-14T08:03:11.356Z,77.10
2023-03-14T08:05:38.486Z,77.10
2023-03-14T08:08:06.307Z,77.20
2023-03-14T08:10:33.015Z,77.20
2023-03-14T08:13:00.615Z,77.00
2023-03-14T08:15:27.509Z,76.80
2023-03-14T08:17:54.952Z,76.90
2023-03-14T08:20:22.780Z,76.80
2023-03-14T08:22:49.470Z,76.60
2023-03-14T08:25:16.429Z,76.50
2023-03-14T08:27:43.561Z,76.30
2023-03-14T08:30:15.329Z,76.20
2023-03-14T08:32:42.240Z,76.10
2023-03-14T08:35:10.597Z,75.90
2023-03-14T08:37:37.361Z,75.80
2023-03-14T08:40:07.847Z,75.70
2023-03-14T08:42:34.858Z,75.70
2023-03-14T08:45:01.550Z,75.70
2023-03-14T08:47:28.545Z,75.50
2023-03-14T08:49:55.310Z,75.30
2023-03-14T08:52:22.132Z,75.30
2023-03-14T08:54:48.782Z,75.20
2023-03-14T08:57:15.624Z,75.00
2023-03-14T08:59:42.359Z,75.00
2023-03-14T09:02:14.023Z,75.00
2023-03-14T09:04:41.702Z,74.80
2023-03-14T09:07:09.641Z,74.60
2023-03-14T09:09:39.454Z,74.50
2023-03-14T09:12:06.718Z,74.30
2023-03-14T09:14:33.520Z,74.30
2023-03-14T09:17:00.202Z,74.30
2023-03-14T09:19:26.944Z,74.30
2023-03-14T09:21:53.667Z,74.30
2023-03-14T09:24:20.336Z,74.20
2023-03-14T09:26:47.050Z,74.20
2023-03-14T09:29:13.769Z,74.20
2023-03-14T09:31:41.783Z,74.10
2023-03-14T09:34:09.518Z,74.00
2023-03-14T09:36:36.295Z,73.90
2023-03-14T09:39:02.956Z,73.80
2023-03-14T09:41:30.727Z,73.70
2023-03-14T09:44:01.209Z,73.50
2023-03-14T09:46:28.593Z,73.40
2023-03-14T09:48:55.322Z,73.40
2023-03-14T09:51:24.448Z,73.30
2023-03-14T09:53:51.255Z,73.30
2023-03-14T09:56:20.279Z,73.30
2023-03-14T09:58:51.968Z,73.40
2023-03-14T10:01:22.046Z,73.20
2023-03-14T10:03:48.795Z,73.20
2023-03-14T10:06:15.709Z,73.10
2023-03-14T10:08:43.141Z,73.10
2023-03-14T10:11:19.308Z,73.00
2023-03-14T10:14:06.103Z,73.00
2023-03-14T10:16:34.595Z,73.10
2023-03-14T10:19:11.552Z,73.10
2023-03-14T10:21:41.648Z,73.10
2023-03-14T10:24:27.920Z,73.00
2023-03-14T10:27:04.950Z,73.00
2023-03-14T10:29:32.734Z,73.30
2023-03-14T10:32:04.623Z,73.10
2023-03-14T10:34:32.733Z,73.20
2023-03-14T10:37:08.452Z,73.10
2023-03-14T10:39:47.440Z,73.10
2023-03-14T10:42:26.702Z,73.10
2023-03-14T10:44:57.480Z,73.10
2023-03-14T10:47:25.367Z,73.10
2023-03-14T10:49:52.153Z,73.60
2023-03-14T10:52:35.659Z,73.50
2023-03-14T10:55:14.775Z,74.30
2023-03-14T10:57:43.999Z,73.70
2023-03-14T11:00:17.985Z,73.60
2023-03-14T11:02:55.024Z,74.10
2023-03-14T11:05:34.006Z,74.00
2023-03-14T11:08:09.576Z,73.60
2023-03-14T11:10:43.708Z,73.30
2023-03-14T11:13:13.409Z,73.10
2023-03-14T11:15:47.098Z,73.00
2023-03-14T11:18:23.354Z,72.90
2023-03-14T11:21:10.417Z,72.90
2023-03-14T11:23:51.494Z,73.00
2023-03-14T11:26:44.502Z,72.80
2023-03-14T11:29:38.008Z,72.90
2023-03-14T11:32:10.149Z,72.70
2023-03-14T11:34:44.748Z,72.70
2023-03-14T11:37:33.018Z,72.70
2023-03-14T11:40:14.942Z,72.90
2023-03-14T11:42:44.986Z,72.70
2023-03-14T11:45:17.358Z,72.90
2023-03-14T11:47:45.186Z,72.90
2023-03-14T11:50:28.233Z,72.80
2023-03-14T11:53:04.815Z,72.50
2023-03-14T11:55:36.528Z,72.70
2023-03-14T11:58:32.645Z,72.50
2023-03-14T12:00:59.402Z,72.50
2023-03-14T12:04:01.670Z,72.10
2023-03-14T12:07:03.009Z,72.30
2023-03-14T12:09:29.746Z,73.10
2023-03-14T12:11:59.134Z,72.10
2023-03-14T12:14:36.575Z,72.20
2023-03-14T12:17:07.589Z,71.90
2023-03-14T12:19:38.938Z,71.70
2023-03-14T12:22:28.890Z,71.50
2023-03-14T12:25:08.115Z,71.50
2023-03-14T12:27:50.944Z,71.10
2023-03-14T12:30:29.347Z,71.10
2023-03-14T12:33:11.100Z,71.30
2023-03-14T12:35:42.458Z,71.00
2023-03-14T12:38:38.191Z,70.90
2023-03-14T12:41:23.528Z,70.90
2023-03-14T12:43:50.378Z,71.80
2023-03-14T12:46:27.168Z,70.90
2023-03-14T12:49:03.532Z,70.60
2023-03-14T12:51:36.313Z,70.90
2023-03-14T12:54:33.976Z,70.80
2023-03-14T12:57:24.625Z,70.80
2023-03-14T13:00:00.339Z,70.60
2023-03-14T13:02:49.531Z,70.80
2023-03-14T13:05:25.503Z,71.30
2023-03-14T13:07:55.871Z,71.20
2023-03-14T13:10:37.205Z,71.90
2023-03-14T13:13:27.001Z,71.30
2023-03-14T13:16:01.410Z,70.40
2023-03-14T13:18:37.045Z,69.90
2023-03-14T13:21:17.208Z,70.10
2023-03-14T13:23:55.993Z,70.40
2023-03-14T13:26:22.769Z,70.10
2023-03-14T13:28:49.416Z,70.30
2023-03-14T13:31:25.947Z,70.30
2023-03-14T13:34:03.019Z,70.10
2023-03-14T13:36:30.207Z,70.70
2023-03-14T13:38:58.550Z,70.00
2023-03-14T13:41:25.371Z,69.90
2023-03-14T13:43:52.028Z,69.90
2023-03-14T13:46:23.016Z,70.10
2023-03-14T13:48:55.654Z,70.10
2023-03-14T13:51:22.630Z,70.00
2023-03-14T13:53:53.236Z,70.10
2023-03-14T13:56:24.414Z,69.80
2023-03-14T13:58:51.297Z,69.50
2023-03-14T14:01:19.469Z,70.30
2023-03-14T14:03:52.533Z,70.60
2023-03-14T14:06:35.532Z,70.60
2023-03-14T14:09:16.612Z,70.40
2023-03-14T14:12:07.503Z,70.20
2023-03-14T14:14:51.464Z,70.10
2023-03-14T14:17:23.644Z,70.10
2023-03-14T14:19:50.355Z,70.00
2023-03-14T14:22:18.590Z,70.10
2023-03-14T14:24:45.497Z,69.90
2023-03-14T14:27:27.614Z,70.10
2023-03-14T14:30:02.162Z,70.30
2023-03-14T14:32:35.906Z,70.00
2023-03-14T14:35:04.124Z,69.90
2023-03-14T14:37:33.155Z,69.60
2023-03-14T14:40:01.722Z,69.90
2023-03-14T14:42:30.706Z,69.50
2023-03-14T14:44:58.016Z,70.70
2023-03-14T14:47:25.869Z,70.30
2023-03-14T14:49:53.945Z,70.20
2023-03-14T14:52:34.192Z,70.00
2023-03-14T14:55:01.399Z,70.30
2023-03-14T14:57:31.447Z,70.40
2023-03-14T15:00:01.607Z,70.50
2023-03-14T15:02:46.339Z,70.60
2023-03-14T15:05:14.625Z,72.50
2023-03-14T15:07:41.411Z,74.10
2023-03-14T15:10:11.567Z,74.40
2023-03-14T15:12:41.113Z,74.20
2023-03-14T15:15:08.532Z,73.50
2023-03-14T15:17:35.624Z,73.90
2023-03-14T15:20:03.074Z,76.30
2023-03-14T15:22:29.759Z,78.70
2023-03-14T15:24:56.422Z,76.00
2023-03-14T15:27:23.523Z,75.70
2023-03-14T15:29:50.977Z,76.30
2023-03-14T15:32:20.302Z,75.30
2023-03-14T15:34:47.171Z,75.30
2023-03-14T15:37:16.573Z,75.20
2023-03-14T15:39:43.877Z,74.70
2023-03-14T15:42:10.741Z,74.60
2023-03-14T15:44:37.499Z,74.60
2023-03-14T15:47:04.266Z,75.30
2023-03-14T15:49:31.000Z,74.50
2023-03-14T15:51:58.205Z,74.50
2023-03-14T15:54:29.120Z,74.50
2023-03-14T15:56:58.992Z,74.50
2023-03-14T15:59:26.018Z,74.30
2023-03-14T16:01:52.734Z,74.40
2023-03-14T16:04:20.563Z,74.50
2023-03-14T16:06:49.546Z,74.50
2023-03-14T16:09:16.263Z,74.60
2023-03-14T16:11:45.013Z,74.50
2023-03-14T16:14:11.685Z,74.60
2023-03-14T16:16:38.386Z,74.50
2023-03-14T16:19:07.500Z,74.30
2023-03-14T16:21:34.235Z,74.00
2023-03-14T16:24:02.950Z,74.20
2023-03-14T16:26:29.948Z,74.20
2023-03-14T16:28:56.608Z,74.10
2023-03-14T16:31:25.141Z,74.20
2023-03-14T16:33:51.960Z,74.30
2023-03-14T16:36:20.533Z,75.10
2023-03-14T16:38:48.820Z,74.20
2023-03-14T16:41:20.996Z,74.20
2023-03-14T16:43:51.954Z,74.10
2023-03-14T16:46:22.299Z,74.10
2023-03-14T16:48:51.024Z,73.90
2023-03-14T16:51:19.391Z,73.80
2023-03-14T16:53:46.426Z,73.70
2023-03-14T16:56:13.255Z,73.70
2023-03-14T16:58:40.074Z,73.80
2023-03-14T17:01:10.684Z,73.90
2023-03-14T17:03:39.264Z,74.00
2023-03-14T17:06:06.441Z,74.10
2023-03-14T17:08:33.236Z,74.20
2023-03-14T17:10:59.932Z,74.20
2023-03-14T17:13:27.566Z,74.30
2023-03-14T17:15:55.716Z,74.00
2023-03-14T17:18:23.444Z,74.30
2023-03-14T17:20:54.060Z,74.10
2023-03-14T17:23:21.168Z,74.10
2023-03-14T17:25:49.284Z,74.20
2023-03-14T17:28:19.644Z,74.30
2023-03-14T17:30:46.519Z,74.20
2023-03-14T17:33:13.528Z,74.50
2023-03-14T17:35:40.367Z,74.50
2023-03-14T17:38:07.088Z,74.40
2023-03-14T17:40:33.789Z,74.50
2023-03-14T17:43:00.544Z,74.50
2023-03-14T17:45:27.282Z,74.60
2023-03-14T17:47:54.062Z,75.00
2023-03-14T17:50:21.901Z,75.00
2023-03-14T17:52:49.731Z,74.80
2023-03-14T17:55:16.541Z,75.00
2023-03-14T17:57:44.879Z,75.00
2023-03-14T18:00:13.110Z,75.00
2023-03-14T18:02:41.829Z,74.90
2023-03-14T18:05:08.898Z,75.00
2023-03-14T18:07:36.023Z,75.20
2023-03-14T18:10:03.135Z,75.20
2023-03-14T18:12:29.953Z,75.40
2023-03-14T18:14:56.643Z,75.40
2023-03-14T18:17:23.420Z,75.40
2023-03-14T18:19:50.705Z,75.30
2023-03-14T18:22:17.480Z,75.60
2023-03-14T18:24:50.402Z,75.90
2023-03-14T18:27:18.588Z,75.90
2023-03-14T18:29:45.327Z,76.40
2023-03-14T18:32:12.000Z,76.60
2023-03-14T18:34:38.734Z,76.40
2023-03-14T18:37:05.424Z,77.70
2023-03-14T18:39:32.206Z,78.20
2023-03-14T18:41:58.985Z,78.70
2023-03-14T18:44:25.737Z,78.90
2023-03-14T18:46:52.514Z,79.40
2023-03-14T18:49:21.557Z,79.60
2023-03-14T18:51:50.208Z,80.10
2023-03-14T18:54:17.001Z,79.70
2023-03-14T18:56:43.674Z,79.20
2023-03-14T18:59:10.611Z,78.60
2023-03-14T19:01:37.632Z,78.60
2023-03-14T19:04:04.625Z,78.20
2023-03-14T19:06:32.986Z,78.50
2023-03-14T19:09:02.726Z,79.20
2023-03-14T19:11:29.489Z,78.80
2023-03-14T19:13:56.922Z,78.10
2023-03-14T19:16:24.764Z,78.40
2023-03-14T19:18:55.644Z,79.70
2023-03-14T19:21:33.628Z,81.60
2023-03-14T19:24:00.962Z,82.60
2023-03-14T19:26:30.140Z,82.30
2023-03-14T19:28:57.116Z,82.40
2023-03-14T19:31:24.326Z,83.40
2023-03-14T19:33:53.266Z,83.20
2023-03-14T19:36:31.238Z,84.10
2023-03-14T19:38:59.371Z,86.60
2023-03-14T19:41:26.345Z,90.40
2023-03-14T19:43:53.131Z,84.20
2023-03-14T19:46:20.582Z,87.00
2023-03-14T19:48:48.604Z,88.00
2023-03-14T19:51:15.747Z,85.00
2023-03-14T19:53:43.348Z,84.10
2023-03-14T19:56:10.660Z,83.30
2023-03-14T19:58:40.821Z,82.90
2023-03-14T20:01:08.559Z,82.70
2023-03-14T20:03:36.567Z,82.90
2023-03-14T20:06:08.496Z,82.90
2023-03-14T20:08:35.313Z,82.80
2023-03-14T20:11:05.363Z,83.00
2023-03-14T20:13:32.418Z,83.80
2023-03-14T20:15:59.140Z,83.90
2023-03-14T20:18:25.918Z,83.50
2023-03-14T20:20:53.839Z,84.40
2023-03-14T20:23:21.510Z,84.00
2023-03-14T20:25:55.958Z,83.40
2023-03-14T20:28:23.506Z,83.10
2023-03-14T20:30:50.600Z,83.00
2023-03-14T20:33:19.837Z,83.40
2023-03-14T20:35:59.548Z,83.30
2023-03-14T20:38:26.750Z,83.60
2023-03-14T20:40:57.031Z,83.60
2023-03-14T20:43:24.354Z,82.90
2023-03-14T20:45:53.412Z,82.80
2023-03-14T20:48:20.424Z,82.80
2023-03-14T20:50:48.268Z,82.30
2023-03-14T20:53:16.839Z,82.20
2023-03-14T20:55:43.664Z,81.60
2023-03-14T20:58:13.522Z,81.80
2023-03-14T21:00:41.119Z,81.70
2023-03-14T21:03:07.823Z,81.60
2023-03-14T21:05:34.715Z,81.50
2023-03-14T21:08:01.449Z,81.20
2023-03-14T21:10:28.324Z,80.90
2023-03-14T21:12:54.996Z,80.70
2023-03-14T21:15:23.111Z,80.60
2023-03-14T21:17:49.825Z,80.50
2023-03-14T21:20:16.667Z,82.10
2023-03-14T21:22:43.400Z,80.90
2023-03-14T21:25:10.294Z,80.70
2023-03-14T21:27:40.726Z,80.50
2023-03-14T21:30:08.443Z,80.70
2023-03-14T21:32:35.240Z,80.20
2023-03-14T21:35:02.133Z,79.90
2023-03-14T21:37:28.876Z,79.70
2023-03-14T21:39:55.614Z,81.30
2023-03-14T21:42:25.605Z,82.30
2023-03-14T21:44:52.295Z,82.30
2023-03-14T21:47:19.804Z,82.40
2023-03-14T21:49:46.635Z,81.70
2023-03-14T21:52:13.911Z,81.60
2023-03-14T21:54:42.901Z,82.20
2023-03-14T21:57:09.718Z,81.20
2023-03-14T21:59:36.883Z,81.10
2023-03-14T22:02:04.841Z,80.90
2023-03-14T22:04:35.182Z,80.60
2023-03-14T22:07:05.505Z,80.70
2023-03-14T22:09:32.541Z,80.50
2023-03-14T22:11:59.374Z,80.50
2023-03-14T22:14:27.259Z,80.40
2023-03-14T22:16:54.600Z,80.00
2023-03-14T22:19:21.997Z,79.90
2023-03-14T22:21:48.888Z,79.60
2023-03-14T22:24:15.564Z,79.50
2023-03-14T22:26:42.289Z,79.50
2023-03-14T22:29:09.030Z,79.40
2023-03-14T22:31:35.755Z,79.30
2023-03-14T22:34:02.500Z,79.20
2023-03-14T22:36:29.282Z,78.90
2023-03-14T22:38:57.154Z,79.00
2023-03-14T22:41:23.820Z,79.00
2023-03-14T22:43:50.563Z,78.80
2023-03-14T22:46:17.255Z,78.90
2023-03-14T22:48:43.914Z,79.00
2023-03-14T22:51:11.433Z,78.80
2023-03-14T22:53:38.835Z,78.80
2023-03-14T22:56:06.801Z,78.60
2023-03-14T22:58:33.853Z,78.80
2023-03-14T23:01:01.196Z,79.10
2023-03-14T23:03:29.430Z,79.30
2023-03-14T23:05:56.796Z,79.30
2023-03-14T23:08:24.143Z,79.20
2023-03-14T23:10:53.457Z,79.30
2023-03-14T23:13:20.492Z,79.40
2023-03-14T23:15:47.192Z,79.50
2023-03-14T23:18:13.952Z,79.50
2023-03-14T23:20:42.997Z,79.90
2023-03-14T23:23:13.660Z,79.90
2023-03-14T23:25:52.544Z,80.20
2023-03-14T23:28:23.024Z,80.30
2023-03-14T23:30:56.667Z,80.60
2023-03-14T23:33:23.886Z,80.60
2023-03-14T23:35:50.612Z,80.60
2023-03-14T23:38:17.363Z,80.50
2023-03-14T23:40:44.093Z,80.60
2023-03-14T23:43:10.817Z,80.40
2023-03-14T23:45:37.490Z,80.50
2023-03-14T23:48:05.060Z,80.60
2023-03-14T23:50:34.587Z,80.60
2023-03-14T23:53:01.924Z,80.60
2023-03-14T23:55:28.598Z,80.50
2023-03-14T23:57:55.295Z,80.50
